Terminal Aerodrome Forecast
Issued by NWS

Home | Current Version | Previous Version | Text Only | Print | Product List | Glossary On
Versions: 1 2 3 4 5 6 7 8 9 10 11 12 13 14 15 16 17 18 19 20 21 22 23 24
000
FTUS46 KSEW 180500
TAFOLM
TAF
KOLM 180520Z 1806/1906 18003KT 6SM BR VCSH SCT025 BKN050 OVC060
      TEMPO 1806/1810 2SM BR SCT004 OVC012
     FM181000 VRB03KT 3SM BR VCSH OVC012
     FM181700 18006KT P6SM BKN035 OVC080
     FM182300 18008KT 6SM -RA BR OVC030=

USA.gov is the U.S. government's official web portal to all federal, state and local government web resources and services.